Time;durP1;ratioP1;P1;durP2;ratioP2;P2;SDS_P1;SDS_P2;PMS_P1;PMS_P2;Temp;Humidity;BMP_temperature;BMP_pressure;BME280_temperature;BME280_humidity;BME280_pressure;Samples;Min_cycle;Max_cycle;Signal;HPM_P1;HPM_P2
2023/12/10 00:00:06;;;;;;;;;8.00;7.00;;;;;21.71;48.24;100008.48;112014;1263;21169;-31
2023/12/10 00:02:34;;;;;;;;;8.00;7.00;;;;;21.72;48.14;100013.44;112129;1247;20717;-31
2023/12/10 00:05:01;;;;;;;;;7.33;7.33;;;;;21.72;48.49;100011.70;111992;1262;19892;-31
2023/12/10 00:07:29;;;;;;;;;10.00;7.67;;;;;21.72;48.47;100011.31;112124;1262;20139;-30
2023/12/10 00:09:56;;;;;;;;;8.00;7.50;;;;;21.72;48.32;100008.42;112021;1262;20718;-31
2023/12/10 00:12:23;;;;;;;;;10.00;7.00;;;;;21.71;48.24;100001.20;112112;1247;20053;-31
2023/12/10 00:14:54;;;;;;;;;8.67;7.67;;;;;21.71;48.49;99998.19;112036;1262;20047;-31
2023/12/10 00:17:21;;;;;;;;;7.00;7.00;;;;;21.70;48.51;99993.55;112009;1255;19413;-31
2023/12/10 00:19:48;;;;;;;;;10.00;8.00;;;;;21.71;48.56;99993.98;112131;1256;18268;-31
2023/12/10 00:22:16;;;;;;;;;7.50;7.00;;;;;21.71;48.20;99994.09;112080;1247;20179;-31
2023/12/10 00:24:43;;;;;;;;;8.00;8.00;;;;;21.71;48.58;99996.77;112100;1262;20656;-31
2023/12/10 00:27:11;;;;;;;;;8.00;7.00;;;;;21.71;48.30;99997.36;112049;1262;19512;-31
2023/12/10 00:29:38;;;;;;;;;9.00;7.00;;;;;21.73;48.22;99999.46;112116;1247;21213;-31
2023/12/10 00:32:06;;;;;;;;;8.00;8.00;;;;;21.72;48.36;100001.50;112108;1247;22250;-31
2023/12/10 00:34:33;;;;;;;;;7.50;7.50;;;;;21.71;48.07;99995.08;112239;1262;19697;-31
2023/12/10 00:37:00;;;;;;;;;8.00;7.00;;;;;21.72;48.40;99991.30;112253;1247;20069;-31
2023/12/10 00:39:28;;;;;;;;;7.00;7.00;;;;;21.72;48.24;99991.02;112218;1247;19327;-31
2023/12/10 00:41:56;;;;;;;;;8.50;7.00;;;;;21.74;48.14;99989.31;112211;1251;21301;-31
2023/12/10 00:44:23;;;;;;;;;10.33;8.00;;;;;21.73;48.17;99985.52;112248;1262;19941;-31
2023/12/10 00:46:50;;;;;;;;;8.00;7.00;;;;;21.73;48.20;99990.14;112204;1262;21813;-31
2023/12/10 00:49:18;;;;;;;;;7.00;7.00;;;;;21.72;48.56;99980.35;112254;1248;20036;-31
2023/12/10 00:51:45;;;;;;;;;5.00;5.00;;;;;21.72;48.28;99978.27;112238;1247;21208;-31
2023/12/10 00:54:13;;;;;;;;;10.00;7.00;;;;;21.72;48.42;99972.98;112189;1251;20950;-31
2023/12/10 00:56:41;;;;;;;;;7.00;5.00;;;;;21.72;48.08;99969.88;112267;1262;18200;-31
2023/12/10 00:59:09;;;;;;;;;8.00;7.00;;;;;21.72;48.30;99977.30;112383;1254;18664;-32
2023/12/10 01:01:37;;;;;;;;;8.00;7.33;;;;;21.72;48.28;99980.83;112231;1247;20696;-31
2023/12/10 01:04:04;;;;;;;;;8.00;5.00;;;;;21.71;48.31;99979.21;112301;1247;19540;-31
2023/12/10 01:06:32;;;;;;;;;7.50;7.00;;;;;21.72;48.21;99986.79;112198;1247;20212;-31
2023/12/10 01:08:59;;;;;;;;;8.00;7.00;;;;;21.72;47.89;99987.91;112330;1262;19506;-31
2023/12/10 01:11:26;;;;;;;;;8.00;7.50;;;;;21.72;48.06;99983.67;112223;1247;18565;-31
2023/12/10 01:13:54;;;;;;;;;8.00;7.00;;;;;21.72;48.03;99983.13;112314;1262;20063;-31
2023/12/10 01:16:21;;;;;;;;;8.00;7.00;;;;;21.71;48.18;99987.52;112229;1247;20732;-31
2023/12/10 01:18:49;;;;;;;;;5.67;5.67;;;;;21.72;48.20;99986.23;112314;1262;18175;-32
2023/12/10 01:21:16;;;;;;;;;7.00;7.00;;;;;21.72;47.97;99989.94;112228;1262;19993;-29
2023/12/10 01:23:43;;;;;;;;;7.00;7.00;;;;;21.72;47.83;99992.17;112227;1250;20892;-29
2023/12/10 01:26:13;;;;;;;;;8.00;7.50;;;;;21.71;48.28;99983.25;112222;1262;19547;-30
2023/12/10 01:28:40;;;;;;;;;11.00;10.00;;;;;21.70;48.16;99975.63;112258;1262;21180;-29
2023/12/10 01:31:08;;;;;;;;;7.00;7.00;;;;;21.70;48.06;99963.64;112115;1262;20741;-30
2023/12/10 01:33:35;;;;;;;;;7.00;7.00;;;;;21.69;48.08;99955.48;112129;1248;20139;-30
2023/12/10 01:36:02;;;;;;;;;8.67;8.00;;;;;21.68;47.91;99955.10;111976;1248;18774;-30
2023/12/10 01:38:30;;;;;;;;;9.00;8.00;;;;;21.68;47.85;99962.63;112176;1263;19324;-30
2023/12/10 01:40:58;;;;;;;;;6.00;5.00;;;;;21.68;47.67;99973.15;111708;1263;376687;-30
2023/12/10 01:43:25;;;;;;;;;7.00;5.00;;;;;21.68;47.43;99983.30;112172;1263;19945;-30
2023/12/10 01:45:53;;;;;;;;;7.00;7.00;;;;;21.68;47.43;99981.05;111982;1263;20768;-30
2023/12/10 01:48:21;;;;;;;;;5.00;5.00;;;;;21.67;47.34;99970.66;112116;1263;18369;-30
2023/12/10 01:50:49;;;;;;;;;8.00;7.00;;;;;21.65;47.32;99961.95;111955;1263;20018;-30
2023/12/10 01:53:16;;;;;;;;;5.00;5.00;;;;;21.67;47.14;99966.63;112091;1263;19334;-30
2023/12/10 01:55:43;;;;;;;;;7.00;7.00;;;;;21.67;46.95;99958.23;112005;1263;18184;-30
2023/12/10 01:58:11;;;;;;;;;7.00;7.00;;;;;21.67;47.13;99956.53;112095;1263;19954;-31
2023/12/10 02:00:39;;;;;;;;;7.50;7.50;;;;;21.66;47.07;99964.51;112010;1248;20701;-30
2023/12/10 02:03:06;;;;;;;;;5.00;5.00;;;;;21.65;46.89;99960.98;112073;1263;19541;-30
2023/12/10 02:05:33;;;;;;;;;5.00;5.00;;;;;21.65;47.05;99962.40;111987;1263;21480;-30
2023/12/10 02:08:02;;;;;;;;;5.00;5.00;;;;;21.66;46.80;99963.53;112104;1263;20922;-30
2023/12/10 02:10:29;;;;;;;;;6.00;6.00;;;;;21.65;46.91;99963.11;112053;1248;19620;-30
2023/12/10 02:12:57;;;;;;;;;7.00;7.00;;;;;21.65;46.85;99956.40;112023;1263;18686;-30
2023/12/10 02:15:24;;;;;;;;;7.00;5.00;;;;;21.64;46.84;99957.89;111990;1248;20664;-30
2023/12/10 02:17:51;;;;;;;;;7.00;5.00;;;;;21.65;46.78;99953.95;112079;1248;19560;-30
2023/12/10 02:20:19;;;;;;;;;5.00;5.00;;;;;21.63;46.67;99958.71;111976;1263;18795;-30
2023/12/10 02:22:46;;;;;;;;;5.67;5.00;;;;;21.64;46.57;99959.30;112062;1263;19469;-30
2023/12/10 02:25:14;;;;;;;;;4.67;4.67;;;;;21.64;46.62;99949.44;111994;1263;18755;-30
2023/12/10 02:27:41;;;;;;;;;5.00;5.00;;;;;21.63;46.59;99946.46;112087;1263;18644;-30
2023/12/10 02:30:09;;;;;;;;;4.00;4.00;;;;;21.64;46.42;99942.30;112006;1263;20682;-30
2023/12/10 02:32:36;;;;;;;;;5.00;5.00;;;;;21.63;46.41;99940.79;112102;1247;19624;-30
2023/12/10 02:35:04;;;;;;;;;5.00;5.00;;;;;21.63;46.33;99935.27;112014;1263;18685;-30
2023/12/10 02:37:31;;;;;;;;;5.00;5.00;;;;;21.62;46.50;99933.27;112045;1263;20663;-30
2023/12/10 02:39:59;;;;;;;;;5.00;5.00;;;;;21.62;46.22;99929.13;112020;1263;20663;-30
2023/12/10 02:42:27;;;;;;;;;4.67;4.33;;;;;21.62;46.14;99926.69;112003;1247;20274;-30
2023/12/10 02:44:54;;;;;;;;;5.00;5.00;;;;;21.61;46.17;99922.55;111993;1263;19356;-30
2023/12/10 02:47:22;;;;;;;;;7.00;7.00;;;;;21.62;46.07;99919.06;112297;1248;19643;-29
2023/12/10 02:49:49;;;;;;;;;8.00;5.00;;;;;21.62;46.16;99916.66;112257;1262;18805;-30
2023/12/10 02:52:16;;;;;;;;;7.00;7.00;;;;;21.62;46.10;99917.69;112280;1247;20793;-30
2023/12/10 02:54:44;;;;;;;;;4.00;4.00;;;;;21.61;46.03;99914.83;112277;1247;19640;-30
2023/12/10 02:57:11;;;;;;;;;;;;;;;21.61;46.00;99915.32;112228;1247;20062;-30
2023/12/10 02:59:39;;;;;;;;;7.00;5.00;;;;;21.62;46.17;99916.21;112193;1262;19331;-30
2023/12/10 03:02:06;;;;;;;;;5.00;4.50;;;;;21.61;45.84;99915.52;112242;1262;19221;-30
2023/12/10 03:04:33;;;;;;;;;5.00;5.00;;;;;21.61;45.89;99917.27;112199;1262;19936;-30
2023/12/10 03:07:01;;;;;;;;;7.00;5.00;;;;;21.61;45.90;99917.38;112230;1262;21052;-31
2023/12/10 03:09:28;;;;;;;;;7.00;5.00;;;;;21.62;45.79;99916.23;112210;1247;19648;-30
2023/12/10 03:11:56;;;;;;;;;6.00;5.00;;;;;21.61;46.05;99914.55;112236;1262;18612;-30
2023/12/10 03:14:23;;;;;;;;;7.00;6.33;;;;;21.61;45.77;99907.30;112017;1263;19389;-30
2023/12/10 03:16:50;;;;;;;;;7.00;6.00;;;;;21.60;45.87;99909.27;112009;1247;19575;-30
2023/12/10 03:19:18;;;;;;;;;5.00;5.00;;;;;21.61;45.73;99909.16;112027;1247;20007;-30
2023/12/10 03:21:45;;;;;;;;;5.00;4.00;;;;;21.60;45.87;99907.58;111941;1250;20819;-30
2023/12/10 03:24:13;;;;;;;;;5.00;5.00;;;;;21.60;45.61;99909.55;112166;1262;18599;-30
2023/12/10 03:26:40;;;;;;;;;5.00;5.00;;;;;21.59;45.68;99906.23;112148;1247;20035;-30
2023/12/10 03:29:08;;;;;;;;;8.00;7.00;;;;;21.60;45.73;99903.51;112131;1248;20830;-30
2023/12/10 03:31:35;;;;;;;;;5.00;4.00;;;;;21.59;45.64;99902.64;112158;1262;18199;-30
2023/12/10 03:34:02;;;;;;;;;5.00;5.00;;;;;21.58;45.74;99899.60;112092;1247;20058;-30
2023/12/10 03:36:30;;;;;;;;;5.00;5.00;;;;;21.58;45.66;99898.41;112000;1247;22170;-30
2023/12/10 03:38:57;;;;;;;;;7.67;6.33;;;;;21.58;45.76;99891.04;111975;1263;18859;-30
2023/12/10 03:41:25;;;;;;;;;5.00;4.00;;;;;21.59;45.50;99888.80;112166;1247;20081;-30
2023/12/10 03:43:52;;;;;;;;;5.00;5.00;;;;;21.58;45.73;99884.89;112185;1262;19325;-30
2023/12/10 03:46:19;;;;;;;;;5.00;5.00;;;;;21.58;45.69;99882.45;112215;1247;19662;-30
2023/12/10 03:48:47;;;;;;;;;7.00;7.00;;;;;21.58;45.50;99882.23;112191;1262;18603;-30
2023/12/10 03:51:14;;;;;;;;;5.00;4.50;;;;;21.57;45.62;99881.53;112235;1262;20724;-30
2023/12/10 03:53:42;;;;;;;;;4.00;4.00;;;;;21.57;45.57;99884.48;112185;1248;20733;-30
2023/12/10 03:56:11;;;;;;;;;5.00;4.00;;;;;21.56;45.37;99887.15;112230;1262;18549;-30
2023/12/10 03:58:38;;;;;;;;;5.00;5.00;;;;;21.56;45.52;99894.02;112203;1262;22030;-30
2023/12/10 04:01:05;;;;;;;;;5.00;5.00;;;;;21.55;45.47;99893.33;112167;1247;19639;-30
2023/12/10 04:03:34;;;;;;;;;4.00;4.00;;;;;21.55;45.50;99899.77;112162;1254;20152;-30
2023/12/10 04:06:01;;;;;;;;;4.00;4.00;;;;;21.55;45.38;99903.08;112157;1247;21007;-30
2023/12/10 04:08:29;;;;;;;;;4.00;4.00;;;;;21.54;45.53;99901.40;112230;1247;19511;-30
2023/12/10 04:10:56;;;;;;;;;7.00;4.00;;;;;21.55;45.31;99899.87;112171;1262;19956;-30
2023/12/10 04:13:23;;;;;;;;;5.00;4.00;;;;;21.55;45.32;99902.49;112220;1247;20757;-30
2023/12/10 04:15:51;;;;;;;;;5.00;5.00;;;;;21.55;45.54;99909.35;112162;1262;18697;-31
2023/12/10 04:18:18;;;;;;;;;5.00;5.00;;;;;21.53;45.26;99902.41;112215;1262;19990;-30
2023/12/10 04:20:46;;;;;;;;;6.33;5.00;;;;;21.54;45.21;99901.35;112013;1256;20984;-30
2023/12/10 04:23:13;;;;;;;;;7.00;6.00;;;;;21.55;45.23;99903.36;112111;1247;19592;-30
2023/12/10 04:25:40;;;;;;;;;4.33;4.00;;;;;21.54;45.33;99905.71;112190;1262;20025;-30
2023/12/10 04:28:08;;;;;;;;;5.67;5.00;;;;;21.54;45.14;99901.36;112173;1262;20677;-30
2023/12/10 04:30:35;;;;;;;;;8.00;8.00;;;;;21.54;45.07;99904.73;112225;1262;19511;-30
2023/12/10 04:33:04;;;;;;;;;4.00;4.00;;;;;21.54;45.18;99903.77;112030;1248;20026;-30
2023/12/10 04:35:31;;;;;;;;;4.00;4.00;;;;;21.54;44.99;99906.20;112017;1247;20785;-30
2023/12/10 04:37:59;;;;;;;;;5.00;4.00;;;;;21.52;45.28;99906.56;112077;1263;18143;-30
2023/12/10 04:40:26;;;;;;;;;5.00;4.00;;;;;21.54;45.03;99906.10;111997;1247;20025;-30
2023/12/10 04:42:54;;;;;;;;;4.00;4.00;;;;;21.54;45.10;99908.23;112089;1247;20697;-30
2023/12/10 04:45:21;;;;;;;;;6.50;4.50;;;;;21.53;44.93;99896.14;112026;1263;20562;-30
2023/12/10 04:47:48;;;;;;;;;6.00;4.50;;;;;21.54;45.04;99897.98;112085;1248;19997;-30
2023/12/10 04:50:16;;;;;;;;;5.67;5.00;;;;;21.53;44.87;99895.48;112051;1263;20885;-30
2023/12/10 04:52:43;;;;;;;;;4.67;4.67;;;;;21.52;44.74;99894.57;112088;1263;19500;-30
2023/12/10 04:55:11;;;;;;;;;5.00;4.00;;;;;21.54;44.93;99896.89;112227;1262;21138;-30
2023/12/10 04:57:38;;;;;;;;;5.00;5.00;;;;;21.52;44.84;99898.38;112246;1247;20697;-30
2023/12/10 05:00:08;;;;;;;;;5.00;5.00;;;;;21.52;45.03;99901.10;112257;1247;20684;-30
2023/12/10 05:02:35;;;;;;;;;5.00;5.00;;;;;21.53;44.98;99908.46;112240;1262;20191;-30
2023/12/10 05:05:03;;;;;;;;;5.00;5.00;;;;;21.52;44.87;99902.20;112158;1247;19353;-30
2023/12/10 05:07:30;;;;;;;;;5.00;4.00;;;;;21.53;44.98;99902.69;112244;1262;18118;-30
2023/12/10 05:09:58;;;;;;;;;5.00;5.00;;;;;21.53;44.87;99906.50;112179;1247;18498;-30
2023/12/10 05:12:25;;;;;;;;;5.00;5.00;;;;;21.52;44.81;99904.71;112277;1247;20756;-30
2023/12/10 05:14:53;;;;;;;;;4.00;4.00;;;;;21.51;45.05;99905.16;112142;1262;19552;-30
2023/12/10 05:17:20;;;;;;;;;4.33;4.00;;;;;21.51;44.94;99904.58;112287;1249;20241;-30
2023/12/10 05:19:47;;;;;;;;;4.00;4.00;;;;;21.50;44.77;99908.61;112164;1262;19356;-30
2023/12/10 05:22:15;;;;;;;;;7.00;5.00;;;;;21.50;44.90;99904.85;112269;1262;19511;-30
2023/12/10 05:24:43;;;;;;;;;2.00;2.00;;;;;21.51;44.87;99906.52;112139;1247;20056;-30
2023/12/10 05:27:10;;;;;;;;;6.33;5.00;;;;;21.51;44.96;99903.20;112262;1262;20761;-30
2023/12/10 05:29:38;;;;;;;;;5.00;5.00;;;;;21.51;44.90;99907.66;112158;1247;18791;-30
2023/12/10 05:32:05;;;;;;;;;5.00;4.00;;;;;21.52;44.86;99909.41;112292;1262;18682;-30
2023/12/10 05:34:32;;;;;;;;;5.00;5.00;;;;;21.49;44.68;99911.52;112156;1262;20658;-30
2023/12/10 05:37:00;;;;;;;;;4.00;4.00;;;;;21.51;44.50;99912.90;112313;1247;18579;-30
2023/12/10 05:39:27;;;;;;;;;5.00;5.00;;;;;21.49;44.75;99916.31;112180;1262;20141;-30
2023/12/10 05:41:55;;;;;;;;;4.33;4.00;;;;;21.50;44.68;99916.74;112311;1248;20713;-30
2023/12/10 05:44:22;;;;;;;;;5.00;5.00;;;;;21.50;44.83;99917.55;112170;1249;19974;-30
2023/12/10 05:46:49;;;;;;;;;5.00;5.00;;;;;21.49;44.71;99911.52;112311;1262;19989;-30
2023/12/10 05:49:17;;;;;;;;;5.67;4.00;;;;;21.50;44.50;99913.47;112193;1246;20830;-30
2023/12/10 05:51:44;;;;;;;;;5.00;5.00;;;;;21.49;44.46;99911.56;112272;1262;18160;-30
2023/12/10 05:54:12;;;;;;;;;7.00;5.00;;;;;21.49;44.58;99913.80;112183;1254;20161;-30
2023/12/10 05:56:41;;;;;;;;;7.00;4.50;;;;;21.49;44.46;99914.84;112146;1263;19270;-30
2023/12/10 05:59:08;;;;;;;;;5.00;4.33;;;;;21.51;44.41;99919.39;111973;1250;20771;-30
2023/12/10 06:01:36;;;;;;;;;5.67;5.67;;;;;21.50;44.48;99933.13;112106;1262;19950;-30
2023/12/10 06:04:03;;;;;;;;;5.00;5.00;;;;;21.50;44.54;99926.33;111983;1247;20954;-30
2023/12/10 06:06:30;;;;;;;;;5.00;5.00;;;;;21.50;44.36;99931.94;112183;1262;18174;-30
2023/12/10 06:08:58;;;;;;;;;7.00;5.00;;;;;21.49;44.46;99928.02;112147;1262;18583;-30
2023/12/10 06:11:26;;;;;;;;;7.00;7.00;;;;;21.48;44.49;99919.16;112266;1262;19385;-30
2023/12/10 06:13:54;;;;;;;;;4.00;4.00;;;;;21.49;44.34;99924.20;112174;1247;19886;-30
2023/12/10 06:16:21;;;;;;;;;4.33;4.33;;;;;21.48;44.46;99931.68;112180;1247;21338;-30
2023/12/10 06:18:49;;;;;;;;;4.00;4.00;;;;;21.49;44.41;99940.35;112186;1247;20800;-30
2023/12/10 06:21:16;;;;;;;;;7.00;5.00;;;;;21.47;44.53;99938.85;112216;1246;20838;-29
2023/12/10 06:23:43;;;;;;;;;4.00;4.00;;;;;21.48;44.40;99934.25;112174;1262;19810;-30
2023/12/10 06:26:11;;;;;;;;;4.50;4.50;;;;;21.48;44.43;99931.38;112280;1262;19324;-30
2023/12/10 06:28:39;;;;;;;;;8.00;6.00;;;;;21.48;44.24;99926.73;111962;1263;19474;-30
2023/12/10 06:31:06;;;;;;;;;7.50;7.00;;;;;21.48;44.27;99935.77;112064;1247;21531;-30
2023/12/10 06:33:33;;;;;;;;;7.00;6.00;;;;;21.48;44.21;99940.14;112009;1263;21153;-30
2023/12/10 06:36:01;;;;;;;;;4.00;4.00;;;;;21.48;44.22;99948.64;112098;1263;18546;-30
2023/12/10 06:38:28;;;;;;;;;7.00;5.00;;;;;21.48;44.43;99950.11;111999;1247;20039;-30
2023/12/10 06:40:56;;;;;;;;;5.00;4.00;;;;;21.47;44.35;99952.63;112099;1248;21979;-30
2023/12/10 06:43:24;;;;;;;;;5.00;4.50;;;;;21.47;44.14;99951.70;112001;1263;19514;-30
2023/12/10 06:45:52;;;;;;;;;5.00;4.00;;;;;21.47;44.10;99955.84;112023;1248;20219;-30
2023/12/10 06:48:19;;;;;;;;;4.50;4.50;;;;;21.47;44.28;99947.89;112001;1263;20665;-30
2023/12/10 06:50:46;;;;;;;;;5.00;5.00;;;;;21.46;44.52;99946.05;112028;1263;19549;-30
2023/12/10 06:53:14;;;;;;;;;7.00;7.00;;;;;21.46;44.32;99943.44;112005;1247;20049;-30
2023/12/10 06:55:41;;;;;;;;;5.00;5.00;;;;;21.46;44.09;99944.91;112058;1247;20707;-30
2023/12/10 06:58:09;;;;;;;;;7.00;6.00;;;;;21.47;44.44;99956.38;112003;1263;19430;-30
2023/12/10 07:00:36;;;;;;;;;4.50;4.50;;;;;21.47;44.24;99960.16;112053;1247;20063;-30
2023/12/10 07:03:03;;;;;;;;;4.00;4.00;;;;;21.45;44.24;99962.14;112018;1263;21867;-30
2023/12/10 07:05:31;;;;;;;;;7.00;5.00;;;;;21.46;44.21;99975.53;112069;1248;19838;-30
2023/12/10 07:07:59;;;;;;;;;7.00;5.00;;;;;21.47;44.09;99980.70;112032;1263;19926;-30
2023/12/10 07:10:26;;;;;;;;;7.00;5.00;;;;;21.46;44.16;99987.41;112064;1263;20539;-30
2023/12/10 07:12:54;;;;;;;;;5.00;4.00;;;;;21.45;44.31;99991.19;112035;1247;19658;-30
2023/12/10 07:15:21;;;;;;;;;6.00;6.00;;;;;21.45;44.01;99994.23;112023;1247;21641;-30
2023/12/10 07:17:49;;;;;;;;;5.67;5.00;;;;;21.45;44.12;99996.96;112037;1247;20970;-30
2023/12/10 07:20:16;;;;;;;;;5.00;5.00;;;;;21.49;44.26;99996.42;112048;1248;19160;-30
2023/12/10 07:22:43;;;;;;;;;7.00;5.00;;;;;21.46;44.11;99997.92;112030;1247;20041;-30
2023/12/10 07:25:11;;;;;;;;;7.00;6.00;;;;;21.46;44.10;99995.36;111946;1263;20658;-30
2023/12/10 07:27:41;;;;;;;;;5.00;5.00;;;;;21.46;44.44;99989.05;112024;1263;19542;-30
2023/12/10 07:30:09;;;;;;;;;7.00;5.00;;;;;21.45;44.21;99990.91;112019;1256;19994;-30
2023/12/10 07:32:36;;;;;;;;;5.00;5.00;;;;;21.46;44.52;99993.63;111979;1263;21010;-30
2023/12/10 07:35:04;;;;;;;;;4.00;4.00;;;;;21.44;44.23;99990.38;112062;1256;19689;-30
2023/12/10 07:37:31;;;;;;;;;5.00;5.00;;;;;21.46;44.49;99991.39;112000;1263;19897;-30
2023/12/10 07:39:59;;;;;;;;;7.00;6.00;;;;;21.46;44.28;99984.48;112074;1247;20898;-29
2023/12/10 07:42:27;;;;;;;;;5.00;4.00;;;;;21.45;44.48;99979.85;112011;1263;21049;-30
2023/12/10 07:44:54;;;;;;;;;7.00;5.00;;;;;21.47;44.28;99977.27;112081;1247;20610;-30
2023/12/10 07:47:22;;;;;;;;;6.00;5.00;;;;;21.47;44.48;99977.76;111991;1248;19340;-30
2023/12/10 07:49:49;;;;;;;;;7.67;7.00;;;;;21.46;44.83;99980.38;112077;1262;18120;-30
2023/12/10 07:52:16;;;;;;;;;4.50;4.00;;;;;21.45;44.80;99985.20;111971;1247;20063;-30
2023/12/10 07:54:46;;;;;;;;;5.00;5.00;;;;;21.45;44.64;99990.26;112098;1256;20808;-30
2023/12/10 07:57:13;;;;;;;;;6.00;5.00;;;;;21.48;44.58;99991.36;112051;1247;19498;-31
2023/12/10 07:59:41;;;;;;;;;7.00;6.00;;;;;21.59;44.09;99994.96;111993;1263;20002;-30
2023/12/10 08:02:08;;;;;;;;;5.00;4.00;;;;;21.53;44.49;99989.98;112047;1263;19423;-30
2023/12/10 08:04:36;;;;;;;;;7.00;7.00;;;;;21.59;44.52;99997.37;112003;1256;21234;-30
2023/12/10 08:07:03;;;;;;;;;5.00;5.00;;;;;21.59;44.61;99999.44;112054;1263;19944;-30
2023/12/10 08:09:31;;;;;;;;;7.00;7.00;;;;;21.59;44.72;100001.85;112027;1247;21011;-30
2023/12/10 08:11:59;;;;;;;;;5.00;5.00;;;;;21.59;44.57;100002.27;112096;1263;18168;-30
2023/12/10 08:14:28;;;;;;;;;11.00;11.00;;;;;21.58;44.97;100004.63;111990;1255;19974;-29
2023/12/10 08:16:55;;;;;;;;;27.00;24.00;;;;;21.65;44.88;100010.92;112073;1247;19361;-30
2023/12/10 08:19:23;;;;;;;;;22.00;22.00;;;;;21.66;45.82;100014.33;112003;1248;18556;-30
2023/12/10 08:21:51;;;;;;;;;20.00;19.00;;;;;21.67;45.29;100013.02;111998;1263;21272;-30
2023/12/10 08:24:19;;;;;;;;;26.00;25.00;;;;;21.64;45.59;100018.01;112094;1247;22195;-30
2023/12/10 08:26:47;;;;;;;;;19.00;17.00;;;;;21.64;45.48;100020.58;111978;1263;18570;-30
2023/12/10 08:29:14;;;;;;;;;26.00;20.00;;;;;21.63;45.42;100015.41;112125;1263;20001;-30
2023/12/10 08:31:42;;;;;;;;;22.50;18.50;;;;;21.64;45.00;100014.48;112017;1263;20770;-30
2023/12/10 08:34:12;;;;;;;;;17.00;17.00;;;;;21.50;45.15;100022.83;112131;1247;21288;-30
2023/12/10 08:36:39;;;;;;;;;20.00;20.00;;;;;21.49;44.63;100022.86;112145;1247;20362;-30
2023/12/10 08:39:08;;;;;;;;;22.00;16.00;;;;;21.51;44.57;100032.46;111989;1263;19362;-30
2023/12/10 08:41:36;;;;;;;;;25.00;22.00;;;;;21.56;44.05;100028.48;112070;1263;18583;-30
2023/12/10 08:44:04;;;;;;;;;20.67;17.67;;;;;21.52;44.22;100030.11;112060;1247;18707;-30
2023/12/10 08:46:31;;;;;;;;;18.67;18.33;;;;;21.55;44.44;100037.83;112064;1263;20813;-30
2023/12/10 08:48:58;;;;;;;;;22.00;16.67;;;;;21.59;44.20;100044.25;112081;1247;18601;-30
2023/12/10 08:51:26;;;;;;;;;16.00;13.67;;;;;21.60;44.51;100042.98;112060;1263;18626;-30
2023/12/10 08:53:53;;;;;;;;;14.00;13.00;;;;;21.62;44.88;100045.95;112053;1256;21142;-30
2023/12/10 08:56:21;;;;;;;;;14.00;14.00;;;;;21.60;45.47;100044.55;112056;1247;21032;-30
2023/12/10 08:58:49;;;;;;;;;14.00;14.00;;;;;21.60;45.08;100040.26;111991;1263;20167;-30
2023/12/10 09:01:17;;;;;;;;;19.50;17.00;;;;;21.57;45.01;100040.17;112034;1263;20626;-29
2023/12/10 09:03:45;;;;;;;;;17.00;16.00;;;;;21.55;44.99;100044.73;112230;1256;19875;-30
2023/12/10 09:06:12;;;;;;;;;17.33;14.00;;;;;21.55;45.39;100047.08;112064;1256;20132;-29
2023/12/10 09:08:40;;;;;;;;;16.33;16.33;;;;;21.54;45.97;100047.58;112157;1263;20685;-30
2023/12/10 09:11:07;;;;;;;;;13.50;13.00;;;;;21.53;46.15;100047.92;112012;1256;18557;-30
2023/12/10 09:13:35;;;;;;;;;14.67;13.00;;;;;21.52;45.69;100042.05;112122;1263;21121;-30
2023/12/10 09:16:02;;;;;;;;;11.00;10.50;;;;;21.54;45.63;100043.05;111971;1263;19351;-30
2023/12/10 09:18:30;;;;;;;;;13.00;10.00;;;;;21.53;45.79;100043.63;112142;1247;18643;-30
2023/12/10 09:20:57;;;;;;;;;10.00;10.00;;;;;21.52;45.80;100037.46;112005;1263;20075;-30
2023/12/10 09:23:25;;;;;;;;;14.00;13.00;;;;;21.52;45.60;100036.00;112161;1247;20782;-30
2023/12/10 09:25:53;;;;;;;;;9.00;9.00;;;;;21.49;45.60;100033.80;111962;1247;20039;-30
2023/12/10 09:28:20;;;;;;;;;10.00;10.00;;;;;21.49;45.65;100034.95;112111;1247;19969;-30
2023/12/10 09:30:48;;;;;;;;;13.00;10.00;;;;;21.48;45.72;100029.94;111956;1263;19554;-30
2023/12/10 09:33:15;;;;;;;;;10.00;10.00;;;;;21.48;45.67;100030.60;112133;1247;21501;-30
2023/12/10 09:35:43;;;;;;;;;11.00;10.00;;;;;21.48;45.76;100028.05;111986;1256;20257;-30
2023/12/10 09:38:10;;;;;;;;;9.00;8.00;;;;;21.47;45.58;100027.52;112148;1247;20599;-30
2023/12/10 09:40:38;;;;;;;;;8.00;8.00;;;;;21.48;45.60;100031.46;111991;1247;20054;-30
2023/12/10 09:43:05;;;;;;;;;12.33;11.67;;;;;21.47;45.52;100029.91;112102;1247;19970;-30
2023/12/10 09:45:32;;;;;;;;;10.00;8.00;;;;;21.48;45.39;100032.63;111958;1263;19487;-30
2023/12/10 09:48:00;;;;;;;;;13.00;10.00;;;;;21.47;45.71;100025.21;112131;1263;19929;-30
2023/12/10 09:50:28;;;;;;;;;17.00;11.00;;;;;21.49;45.51;100021.11;111969;1247;20108;-30
2023/12/10 09:52:55;;;;;;;;;8.00;7.00;;;;;21.49;45.49;100015.33;112107;1263;19348;-30
2023/12/10 09:55:22;;;;;;;;;11.00;10.00;;;;;21.51;45.20;100015.14;111986;1247;19962;-30
2023/12/10 09:57:50;;;;;;;;;10.33;10.00;;;;;21.50;45.47;100015.16;112036;1263;20015;-30
2023/12/10 10:00:18;;;;;;;;;14.00;11.00;;;;;21.49;45.43;100018.16;111930;1263;19766;-29
2023/12/10 10:02:46;;;;;;;;;13.00;10.00;;;;;21.47;45.40;100017.38;112082;1263;20167;-30
2023/12/10 10:05:13;;;;;;;;;10.00;9.00;;;;;21.50;45.42;100015.15;111915;1263;18578;-30
2023/12/10 10:07:41;;;;;;;;;7.33;7.33;;;;;21.57;45.37;100013.97;111909;1256;20415;-30
2023/12/10 10:10:11;;;;;;;;;35.00;28.00;;;;;21.63;45.22;100015.62;111896;1248;18663;-30
2023/12/10 10:12:39;;;;;;;;;53.00;36.00;;;;;21.62;45.41;100026.83;111891;1263;19057;-29
2023/12/10 10:15:06;;;;;;;;;105.00;74.00;;;;;21.62;44.99;100027.41;111870;1263;20781;-30
2023/12/10 10:17:34;;;;;;;;;120.00;87.50;;;;;21.67;44.49;100022.45;111926;1247;19956;-30
2023/12/10 10:20:04;;;;;;;;;100.00;74.00;;;;;21.71;44.96;100026.81;111933;1263;20094;-30
2023/12/10 10:22:31;;;;;;;;;97.00;71.00;;;;;21.75;45.20;100030.84;111888;1247;20773;-30
2023/12/10 10:24:59;;;;;;;;;86.67;65.33;;;;;21.79;45.58;100026.59;111884;1247;19968;-29
2023/12/10 10:27:27;;;;;;;;;76.50;57.00;;;;;21.81;45.72;100016.35;111899;1263;20292;-31
2023/12/10 10:29:54;;;;;;;;;73.00;57.00;;;;;21.85;45.84;100012.98;111930;1247;20828;-30
2023/12/10 10:32:22;;;;;;;;;62.50;48.50;;;;;21.89;46.08;100019.95;111999;1263;19929;-30
2023/12/10 10:34:49;;;;;;;;;66.00;48.00;;;;;21.91;46.32;100021.44;112025;1247;20147;-30
2023/12/10 10:37:17;;;;;;;;;50.00;44.33;;;;;21.90;46.37;100023.75;112028;1263;22295;-30
2023/12/10 10:39:44;;;;;;;;;42.67;36.33;;;;;21.83;46.67;100029.41;112019;1256;19959;-31
2023/12/10 10:42:12;;;;;;;;;37.00;35.00;;;;;21.75;45.97;100029.27;112022;1263;20548;-30
2023/12/10 10:44:39;;;;;;;;;42.00;36.00;;;;;21.59;43.68;100029.20;112024;1263;19340;-29
2023/12/10 10:47:07;;;;;;;;;39.50;35.50;;;;;21.39;43.03;100038.34;112056;1247;20027;-30
2023/12/10 10:49:34;;;;;;;;;41.00;35.00;;;;;21.47;43.95;100033.62;112004;1263;20037;-29
2023/12/10 10:52:02;;;;;;;;;33.00;31.00;;;;;21.55;43.83;100030.98;112064;1247;20596;-29
2023/12/10 10:54:30;;;;;;;;;32.00;28.67;;;;;21.63;43.90;100031.33;111980;1263;19929;-30
2023/12/10 10:56:58;;;;;;;;;32.00;28.00;;;;;21.67;43.42;100029.80;111969;1263;20192;-30
2023/12/10 10:59:25;;;;;;;;;34.50;29.50;;;;;21.68;43.48;100031.59;111985;1263;20848;-30
2023/12/10 11:01:52;;;;;;;;;29.00;28.00;;;;;21.68;42.64;100029.02;111971;1247;19900;-30
2023/12/10 11:04:20;;;;;;;;;33.00;29.00;;;;;21.64;42.78;100031.15;111981;1263;18716;-30
2023/12/10 11:06:49;;;;;;;;;32.00;25.00;;;;;21.61;42.87;100031.08;112005;1263;19351;-30
2023/12/10 11:09:16;;;;;;;;;31.00;26.00;;;;;21.66;42.03;100027.76;112037;1263;19895;-30
2023/12/10 11:11:44;;;;;;;;;29.50;27.50;;;;;21.66;41.81;100021.75;112024;1263;21175;-30
2023/12/10 11:14:11;;;;;;;;;26.00;23.67;;;;;21.65;42.05;100018.77;112050;1263;19792;-30
2023/12/10 11:16:39;;;;;;;;;26.00;23.00;;;;;21.61;41.73;100024.66;112035;1263;18585;-30
2023/12/10 11:19:06;;;;;;;;;30.33;24.33;;;;;21.59;41.77;100029.43;112057;1247;20056;-30